Kaumakani, HI (96747)

8:05 PM HST on July 25, 2016 (GMT -1000)
Waimea, Hi 96796 | | Change Station

Elev 60 ft 21.95 °N, 159.67 °W | Updated 28 seconds ago

Clear
Clear
80.9 °F
Feels Like 87 °F
N
3.0
Wind Variable Wind from ESE
Gusts 7.0 mph

Today
High -- | Low -- °F
--% Chance of Precip.
Yesterday
High -- | Low -- °F
Precip. -- in
Pressure 29.97 in
Visibility -9999.0 miles
Clouds Clear
Heat Index 87 °F
Dew Point 75 °F
Humidity 83%
Rainfall 0.00 in
Snow Depth Not available.
6:08 AM 7:21 PM
Waning Gibbous, 58% visible
METAR PHBK 260556Z AUTO 14006KT CLR 28/24 A2996 RMK AO2 SLP148 T02780244 10328 20278 53016
Pressure 29.97 in
Visibility -9999.0 miles
Clouds Clear
Heat Index 87 °F
Dew Point 75 °F
Humidity 83%
Rainfall 0.00 in
Snow Depth Not available.
6:08 AM 7:21 PM
Waning Gibbous, 58% visible
METAR PHBK 260556Z AUTO 14006KT CLR 28/24 A2996 RMK AO2 SLP148 T02780244 10328 20278 53016

10-Day Weather Forecast

Almanac

Astronomy

Jul. 25, 2016 Rise Set
Actual Time
Civil Twilight
Nautical Twilight
Astronomical Twilight
Moon
Length of Visible Light
Length of Day
Tomorrow will be .
, % of the Moon is Illuminated

Today's Extremes

State Highs State Lows

Community

WunderPhotos

Upload Photos

1,927,547 photos uploaded!

WunderBlog® & News

Nearby

Air Quality

  Air Quality AQ Index Pollutant
Not available.

Snow Depth

Station Depth Elevation

Earthquake Activity

City Distance Mag. Time & Date
Minimum magnitude displayed is 2.5.

Coastal Water Temperatures

Place Temperature

Stations

Nearby Weather Stations

Station Location Temp. Windchill Dew Point Humidity Wind Precip. Elev Updated Type
                   

Watches & Warnings

There are currently no watches in effect.